sensor_id;sensor_type;location;lat;lon;timestamp;pressure;altitude;pressure_sealevel;temperature;humidity
39243;BME280;29823;47.404;8.566;2023-02-20T00:00:54;97645.75;;;8.10;100.00
39243;BME280;29823;47.404;8.566;2023-02-20T00:03:23;97649.44;;;8.09;100.00
39243;BME280;29823;47.404;8.566;2023-02-20T00:05:51;97649.84;;;8.06;100.00
39243;BME280;29823;47.404;8.566;2023-02-20T00:08:20;97648.16;;;8.05;100.00
39243;BME280;29823;47.404;8.566;2023-02-20T00:10:48;97641.91;;;8.13;100.00
39243;BME280;29823;47.404;8.566;2023-02-20T00:13:16;97651.22;;;8.02;100.00
39243;BME280;29823;47.404;8.566;2023-02-20T00:15:44;97653.31;;;8.07;100.00
39243;BME280;29823;47.404;8.566;2023-02-20T00:18:12;97655.72;;;8.02;100.00
39243;BME280;29823;47.404;8.566;2023-02-20T00:20:40;97666.00;;;8.05;100.00
39243;BME280;29823;47.404;8.566;2023-02-20T00:23:08;97668.09;;;8.09;100.00
39243;BME280;29823;47.404;8.566;2023-02-20T00:25:37;97662.13;;;8.07;100.00
39243;BME280;29823;47.404;8.566;2023-02-20T00:28:05;97660.75;;;8.11;100.00
39243;BME280;29823;47.404;8.566;2023-02-20T00:30:32;97668.00;;;8.17;100.00
39243;BME280;29823;47.404;8.566;2023-02-20T00:33:00;97659.56;;;8.14;100.00
39243;BME280;29823;47.404;8.566;2023-02-20T00:35:28;97656.31;;;8.18;100.00
39243;BME280;29823;47.404;8.566;2023-02-20T00:37:56;97662.91;;;8.01;100.00
39243;BME280;29823;47.404;8.566;2023-02-20T00:40:24;97666.09;;;8.11;100.00
39243;BME280;29823;47.404;8.566;2023-02-20T00:42:54;97669.81;;;8.17;100.00
39243;BME280;29823;47.404;8.566;2023-02-20T00:45:22;97663.28;;;8.19;100.00
39243;BME280;29823;47.404;8.566;2023-02-20T00:47:49;97660.38;;;8.14;100.00
39243;BME280;29823;47.404;8.566;2023-02-20T00:50:17;97668.34;;;8.14;100.00
39243;BME280;29823;47.404;8.566;2023-02-20T00:52:45;97668.97;;;8.16;100.00
39243;BME280;29823;47.404;8.566;2023-02-20T00:55:13;97659.75;;;8.12;100.00
39243;BME280;29823;47.404;8.566;2023-02-20T00:57:41;97670.44;;;8.19;100.00
39243;BME280;29823;47.404;8.566;2023-02-20T01:00:18;97663.97;;;8.07;100.00
39243;BME280;29823;47.404;8.566;2023-02-20T01:02:46;97667.19;;;8.02;100.00
39243;BME280;29823;47.404;8.566;2023-02-20T01:05:14;97681.91;;;7.98;100.00
39243;BME280;29823;47.404;8.566;2023-02-20T01:07:42;97676.66;;;8.05;100.00
39243;BME280;29823;47.404;8.566;2023-02-20T01:10:11;97670.88;;;8.01;100.00
39243;BME280;29823;47.404;8.566;2023-02-20T01:12:39;97668.41;;;8.00;100.00
39243;BME280;29823;47.404;8.566;2023-02-20T01:15:08;97675.81;;;8.04;100.00
39243;BME280;29823;47.404;8.566;2023-02-20T01:17:37;97674.34;;;8.02;100.00
39243;BME280;29823;47.404;8.566;2023-02-20T01:20:07;97676.22;;;8.01;100.00
39243;BME280;29823;47.404;8.566;2023-02-20T01:22:35;97683.38;;;8.01;100.00
39243;BME280;29823;47.404;8.566;2023-02-20T01:25:03;97679.69;;;8.02;100.00
39243;BME280;29823;47.404;8.566;2023-02-20T01:27:31;97680.59;;;7.94;100.00
39243;BME280;29823;47.404;8.566;2023-02-20T01:29:59;97673.53;;;8.01;100.00
39243;BME280;29823;47.404;8.566;2023-02-20T01:32:26;97677.59;;;7.97;100.00
39243;BME280;29823;47.404;8.566;2023-02-20T01:34:56;97674.56;;;8.00;100.00
39243;BME280;29823;47.404;8.566;2023-02-20T01:37:23;97679.22;;;7.98;100.00
39243;BME280;29823;47.404;8.566;2023-02-20T01:39:51;97679.34;;;7.90;100.00
39243;BME280;29823;47.404;8.566;2023-02-20T01:42:22;97673.19;;;7.90;100.00
39243;BME280;29823;47.404;8.566;2023-02-20T01:44:51;97676.03;;;7.88;100.00
39243;BME280;29823;47.404;8.566;2023-02-20T01:47:20;97672.28;;;7.83;100.00
39243;BME280;29823;47.404;8.566;2023-02-20T01:49:51;97668.63;;;7.84;100.00
39243;BME280;29823;47.404;8.566;2023-02-20T01:52:25;97666.56;;;7.86;100.00
39243;BME280;29823;47.404;8.566;2023-02-20T01:54:56;97671.09;;;7.85;100.00
39243;BME280;29823;47.404;8.566;2023-02-20T01:57:28;97666.03;;;7.90;100.00
39243;BME280;29823;47.404;8.566;2023-02-20T02:00:00;97669.97;;;7.94;100.00
39243;BME280;29823;47.404;8.566;2023-02-20T02:02:33;97656.47;;;7.96;100.00
39243;BME280;29823;47.404;8.566;2023-02-20T02:05:04;97676.69;;;7.90;100.00
39243;BME280;29823;47.404;8.566;2023-02-20T02:07:35;97661.19;;;7.79;100.00
39243;BME280;29823;47.404;8.566;2023-02-20T02:10:08;97670.56;;;7.75;100.00
39243;BME280;29823;47.404;8.566;2023-02-20T02:12:37;97669.66;;;7.68;100.00
39243;BME280;29823;47.404;8.566;2023-02-20T02:15:12;97675.97;;;7.67;100.00
39243;BME280;29823;47.404;8.566;2023-02-20T02:18:00;97683.13;;;7.67;100.00
39243;BME280;29823;47.404;8.566;2023-02-20T02:20:57;97671.38;;;7.61;100.00
39243;BME280;29823;47.404;8.566;2023-02-20T02:24:02;97670.19;;;7.64;100.00
39243;BME280;29823;47.404;8.566;2023-02-20T02:26:54;97669.84;;;7.67;100.00
39243;BME280;29823;47.404;8.566;2023-02-20T02:29:50;97664.34;;;7.68;100.00
39243;BME280;29823;47.404;8.566;2023-02-20T02:38:39;97651.47;;;7.72;100.00
39243;BME280;29823;47.404;8.566;2023-02-20T02:41:17;97663.59;;;7.74;100.00
39243;BME280;29823;47.404;8.566;2023-02-20T02:43:50;97651.72;;;7.62;100.00
39243;BME280;29823;47.404;8.566;2023-02-20T02:46:26;97633.13;;;7.33;100.00
39243;BME280;29823;47.404;8.566;2023-02-20T02:49:00;97639.09;;;7.50;100.00
39243;BME280;29823;47.404;8.566;2023-02-20T02:51:34;97649.75;;;7.50;100.00
39243;BME280;29823;47.404;8.566;2023-02-20T02:54:07;97639.56;;;7.39;100.00
39243;BME280;29823;47.404;8.566;2023-02-20T02:56:36;97635.41;;;7.22;100.00
39243;BME280;29823;47.404;8.566;2023-02-20T02:59:06;97629.28;;;7.21;100.00
39243;BME280;29823;47.404;8.566;2023-02-20T03:01:38;97637.16;;;7.29;100.00
39243;BME280;29823;47.404;8.566;2023-02-20T03:04:10;97640.22;;;7.26;100.00
39243;BME280;29823;47.404;8.566;2023-02-20T03:06:41;97637.34;;;7.13;100.00
39243;BME280;29823;47.404;8.566;2023-02-20T03:09:16;97641.75;;;7.06;100.00
39243;BME280;29823;47.404;8.566;2023-02-20T03:11:47;97643.56;;;7.06;100.00
39243;BME280;29823;47.404;8.566;2023-02-20T03:14:17;97629.63;;;7.04;100.00
39243;BME280;29823;47.404;8.566;2023-02-20T03:17:09;97631.50;;;7.03;100.00
39243;BME280;29823;47.404;8.566;2023-02-20T03:19:43;97631.66;;;7.02;100.00
39243;BME280;29823;47.404;8.566;2023-02-20T03:22:15;97621.47;;;6.91;100.00
39243;BME280;29823;47.404;8.566;2023-02-20T03:24:48;97626.78;;;6.76;100.00
39243;BME280;29823;47.404;8.566;2023-02-20T03:27:26;97612.34;;;6.56;100.00
39243;BME280;29823;47.404;8.566;2023-02-20T03:29:57;97630.00;;;6.49;100.00
39243;BME280;29823;47.404;8.566;2023-02-20T03:32:29;97628.03;;;6.43;100.00
39243;BME280;29823;47.404;8.566;2023-02-20T03:35:18;97624.22;;;6.23;100.00
39243;BME280;29823;47.404;8.566;2023-02-20T03:38:06;97621.28;;;6.18;100.00
39243;BME280;29823;47.404;8.566;2023-02-20T03:40:54;97619.34;;;6.12;100.00
39243;BME280;29823;47.404;8.566;2023-02-20T03:43:44;97615.09;;;5.95;100.00
39243;BME280;29823;47.404;8.566;2023-02-20T03:46:16;97588.63;;;5.87;100.00
39243;BME280;29823;47.404;8.566;2023-02-20T03:48:51;97615.09;;;5.95;100.00
39243;BME280;29823;47.404;8.566;2023-02-20T03:51:20;97609.41;;;5.84;100.00
39243;BME280;29823;47.404;8.566;2023-02-20T03:53:49;97605.94;;;5.75;100.00
39243;BME280;29823;47.404;8.566;2023-02-20T03:56:23;97606.50;;;5.63;100.00
39243;BME280;29823;47.404;8.566;2023-02-20T03:58:54;97616.00;;;5.49;100.00
39243;BME280;29823;47.404;8.566;2023-02-20T04:01:26;97607.13;;;5.34;100.00
39243;BME280;29823;47.404;8.566;2023-02-20T04:03:56;97605.94;;;5.37;100.00
39243;BME280;29823;47.404;8.566;2023-02-20T04:06:27;97598.34;;;5.34;100.00
39243;BME280;29823;47.404;8.566;2023-02-20T04:09:00;97600.78;;;5.43;100.00
39243;BME280;29823;47.404;8.566;2023-02-20T04:11:35;97598.22;;;5.27;100.00
39243;BME280;29823;47.404;8.566;2023-02-20T04:14:04;97606.66;;;5.31;100.00
39243;BME280;29823;47.404;8.566;2023-02-20T04:16:36;97607.16;;;5.26;100.00
39243;BME280;29823;47.404;8.566;2023-02-20T04:19:06;97609.97;;;5.25;100.00
39243;BME280;29823;47.404;8.566;2023-02-20T04:21:37;97606.16;;;5.27;100.00
39243;BME280;29823;47.404;8.566;2023-02-20T04:24:10;97600.22;;;5.17;100.00
39243;BME280;29823;47.404;8.566;2023-02-20T04:26:41;97608.88;;;5.11;100.00
39243;BME280;29823;47.404;8.566;2023-02-20T04:29:09;97599.59;;;5.07;100.00
39243;BME280;29823;47.404;8.566;2023-02-20T04:31:37;97600.91;;;5.11;100.00
39243;BME280;29823;47.404;8.566;2023-02-20T04:34:05;97591.81;;;5.06;100.00
39243;BME280;29823;47.404;8.566;2023-02-20T04:36:33;97594.47;;;5.06;100.00
39243;BME280;29823;47.404;8.566;2023-02-20T04:39:01;97595.19;;;4.92;100.00
39243;BME280;29823;47.404;8.566;2023-02-20T04:41:29;97587.25;;;4.84;100.00
39243;BME280;29823;47.404;8.566;2023-02-20T04:43:58;97602.97;;;4.85;100.00
39243;BME280;29823;47.404;8.566;2023-02-20T04:46:39;97595.72;;;4.79;100.00
39243;BME280;29823;47.404;8.566;2023-02-20T04:49:07;97593.72;;;4.81;100.00
39243;BME280;29823;47.404;8.566;2023-02-20T04:51:35;97592.91;;;4.81;100.00
39243;BME280;29823;47.404;8.566;2023-02-20T04:54:03;97597.03;;;4.75;100.00
39243;BME280;29823;47.404;8.566;2023-02-20T04:56:30;97599.72;;;4.59;100.00
39243;BME280;29823;47.404;8.566;2023-02-20T04:59:00;97597.75;;;4.61;100.00
39243;BME280;29823;47.404;8.566;2023-02-20T05:01:28;97592.94;;;4.65;100.00
39243;BME280;29823;47.404;8.566;2023-02-20T05:03:55;97602.66;;;4.80;100.00
39243;BME280;29823;47.404;8.566;2023-02-20T05:06:23;97604.00;;;4.68;100.00
39243;BME280;29823;47.404;8.566;2023-02-20T05:08:51;97600.88;;;4.57;100.00
39243;BME280;29823;47.404;8.566;2023-02-20T05:11:19;97598.09;;;4.42;100.00
39243;BME280;29823;47.404;8.566;2023-02-20T05:13:47;97591.09;;;4.49;100.00
39243;BME280;29823;47.404;8.566;2023-02-20T05:16:16;97594.41;;;4.59;100.00
39243;BME280;29823;47.404;8.566;2023-02-20T05:18:44;97594.09;;;4.62;100.00
39243;BME280;29823;47.404;8.566;2023-02-20T05:21:12;97600.38;;;4.69;100.00
39243;BME280;29823;47.404;8.566;2023-02-20T05:23:58;97601.06;;;4.55;100.00
39243;BME280;29823;47.404;8.566;2023-02-20T05:26:25;97601.69;;;4.49;100.00
39243;BME280;29823;47.404;8.566;2023-02-20T05:28:53;97591.13;;;4.41;100.00
39243;BME280;29823;47.404;8.566;2023-02-20T05:31:23;97593.13;;;4.55;100.00
39243;BME280;29823;47.404;8.566;2023-02-20T05:33:50;97594.75;;;4.56;100.00
39243;BME280;29823;47.404;8.566;2023-02-20T05:36:18;97590.78;;;4.52;100.00
39243;BME280;29823;47.404;8.566;2023-02-20T05:38:46;97595.28;;;4.44;100.00
39243;BME280;29823;47.404;8.566;2023-02-20T05:41:15;97590.47;;;4.31;100.00
39243;BME280;29823;47.404;8.566;2023-02-20T05:43:43;97578.56;;;4.27;100.00
39243;BME280;29823;47.404;8.566;2023-02-20T05:46:11;97594.13;;;4.46;100.00
39243;BME280;29823;47.404;8.566;2023-02-20T05:48:41;97594.44;;;4.51;100.00
39243;BME280;29823;47.404;8.566;2023-02-20T05:51:19;97590.47;;;4.39;100.00
39243;BME280;29823;47.404;8.566;2023-02-20T05:53:46;97582.84;;;4.52;100.00
39243;BME280;29823;47.404;8.566;2023-02-20T05:56:14;97600.56;;;4.44;100.00
39243;BME280;29823;47.404;8.566;2023-02-20T05:58:43;97587.97;;;4.30;100.00
39243;BME280;29823;47.404;8.566;2023-02-20T06:01:16;97588.16;;;4.36;100.00
39243;BME280;29823;47.404;8.566;2023-02-20T06:03:46;97590.81;;;4.36;100.00
39243;BME280;29823;47.404;8.566;2023-02-20T06:06:15;97585.34;;;4.30;100.00
39243;BME280;29823;47.404;8.566;2023-02-20T06:08:43;97576.56;;;4.21;100.00
39243;BME280;29823;47.404;8.566;2023-02-20T06:11:12;97591.81;;;4.19;100.00
39243;BME280;29823;47.404;8.566;2023-02-20T06:13:40;97590.81;;;4.12;100.00
39243;BME280;29823;47.404;8.566;2023-02-20T06:16:08;97592.47;;;3.97;100.00
39243;BME280;29823;47.404;8.566;2023-02-20T06:18:38;97588.47;;;3.93;100.00
39243;BME280;29823;47.404;8.566;2023-02-20T06:21:08;97595.09;;;3.89;100.00
39243;BME280;29823;47.404;8.566;2023-02-20T06:23:37;97591.09;;;3.77;100.00
39243;BME280;29823;47.404;8.566;2023-02-20T06:26:05;97577.03;;;3.77;100.00
39243;BME280;29823;47.404;8.566;2023-02-20T06:28:34;97565.81;;;3.75;100.00
39243;BME280;29823;47.404;8.566;2023-02-20T06:31:01;97590.94;;;3.87;100.00
39243;BME280;29823;47.404;8.566;2023-02-20T06:33:29;97585.84;;;4.25;100.00
39243;BME280;29823;47.404;8.566;2023-02-20T06:35:57;97585.19;;;4.31;100.00
39243;BME280;29823;47.404;8.566;2023-02-20T06:38:26;97592.28;;;4.31;100.00
39243;BME280;29823;47.404;8.566;2023-02-20T06:40:54;97591.47;;;4.22;100.00
39243;BME280;29823;47.404;8.566;2023-02-20T06:43:22;97562.00;;;4.17;100.00
39243;BME280;29823;47.404;8.566;2023-02-20T06:45:50;97588.81;;;4.30;100.00
39243;BME280;29823;47.404;8.566;2023-02-20T06:48:18;97572.59;;;4.17;100.00
39243;BME280;29823;47.404;8.566;2023-02-20T06:50:46;97582.53;;;4.31;100.00
39243;BME280;29823;47.404;8.566;2023-02-20T06:53:13;97576.59;;;4.29;100.00
39243;BME280;29823;47.404;8.566;2023-02-20T06:55:43;97577.88;;;4.33;100.00
39243;BME280;29823;47.404;8.566;2023-02-20T06:58:10;97568.66;;;4.29;100.00
39243;BME280;29823;47.404;8.566;2023-02-20T07:00:38;97584.00;;;4.50;100.00
39243;BME280;29823;47.404;8.566;2023-02-20T07:03:06;97588.13;;;4.68;100.00
39243;BME280;29823;47.404;8.566;2023-02-20T07:05:34;97587.72;;;4.87;100.00
39243;BME280;29823;47.404;8.566;2023-02-20T07:08:02;97585.75;;;4.89;100.00
39243;BME280;29823;47.404;8.566;2023-02-20T07:10:30;97590.69;;;5.00;100.00
39243;BME280;29823;47.404;8.566;2023-02-20T07:12:59;97576.41;;;5.09;100.00
39243;BME280;29823;47.404;8.566;2023-02-20T07:15:28;97597.22;;;5.28;100.00
39243;BME280;29823;47.404;8.566;2023-02-20T07:17:57;97592.84;;;5.35;100.00
39243;BME280;29823;47.404;8.566;2023-02-20T07:20:24;97595.13;;;5.46;100.00
39243;BME280;29823;47.404;8.566;2023-02-20T07:22:52;97577.06;;;5.72;100.00
39243;BME280;29823;47.404;8.566;2023-02-20T07:25:20;97589.16;;;6.05;100.00
39243;BME280;29823;47.404;8.566;2023-02-20T07:27:49;97590.88;;;6.21;100.00
39243;BME280;29823;47.404;8.566;2023-02-20T07:30:18;97592.78;;;6.12;100.00
39243;BME280;29823;47.404;8.566;2023-02-20T07:32:46;97593.72;;;6.42;100.00
39243;BME280;29823;47.404;8.566;2023-02-20T07:35:14;97591.38;;;6.61;100.00
39243;BME280;29823;47.404;8.566;2023-02-20T07:37:42;97563.78;;;6.91;100.00
39243;BME280;29823;47.404;8.566;2023-02-20T07:40:11;97589.66;;;6.97;100.00
39243;BME280;29823;47.404;8.566;2023-02-20T07:42:39;97583.16;;;7.29;100.00
39243;BME280;29823;47.404;8.566;2023-02-20T07:45:08;97582.94;;;7.45;100.00
39243;BME280;29823;47.404;8.566;2023-02-20T07:47:37;97580.75;;;7.84;100.00
39243;BME280;29823;47.404;8.566;2023-02-20T07:50:05;97581.09;;;7.95;100.00
39243;BME280;29823;47.404;8.566;2023-02-20T07:52:33;97576.66;;;8.02;100.00
39243;BME280;29823;47.404;8.566;2023-02-20T07:55:01;97578.94;;;7.84;100.00
39243;BME280;29823;47.404;8.566;2023-02-20T07:57:30;97581.19;;;8.23;100.00
39243;BME280;29823;47.404;8.566;2023-02-20T08:00:00;97581.69;;;8.81;100.00
39243;BME280;29823;47.404;8.566;2023-02-20T08:02:28;97579.59;;;8.77;100.00
39243;BME280;29823;47.404;8.566;2023-02-20T08:04:57;97571.97;;;9.35;100.00
39243;BME280;29823;47.404;8.566;2023-02-20T08:07:25;97572.63;;;9.10;100.00
39243;BME280;29823;47.404;8.566;2023-02-20T08:09:53;97566.31;;;9.58;100.00
39243;BME280;29823;47.404;8.566;2023-02-20T08:12:21;97564.50;;;9.65;100.00
39243;BME280;29823;47.404;8.566;2023-02-20T08:14:49;97565.94;;;9.61;100.00
39243;BME280;29823;47.404;8.566;2023-02-20T08:17:17;97565.69;;;10.16;100.00
39243;BME280;29823;47.404;8.566;2023-02-20T08:19:45;97556.03;;;10.28;100.00
39243;BME280;29823;47.404;8.566;2023-02-20T08:22:15;97560.97;;;10.24;100.00
39243;BME280;29823;47.404;8.566;2023-02-20T08:24:42;97559.97;;;10.38;100.00
39243;BME280;29823;47.404;8.566;2023-02-20T08:27:10;97552.16;;;10.69;100.00
39243;BME280;29823;47.404;8.566;2023-02-20T08:29:38;97552.16;;;10.69;100.00
39243;BME280;29823;47.404;8.566;2023-02-20T08:32:06;97549.00;;;11.24;98.93
39243;BME280;29823;47.404;8.566;2023-02-20T08:34:34;97553.84;;;11.47;100.00
39243;BME280;29823;47.404;8.566;2023-02-20T08:37:02;97549.00;;;11.81;96.68
39243;BME280;29823;47.404;8.566;2023-02-20T08:39:31;97553.13;;;11.77;97.25
39243;BME280;29823;47.404;8.566;2023-02-20T08:41:59;97552.91;;;11.15;98.94
39243;BME280;29823;47.404;8.566;2023-02-20T08:44:27;97555.34;;;11.23;100.00
39243;BME280;29823;47.404;8.566;2023-02-20T08:46:54;97551.72;;;12.12;97.25
39243;BME280;29823;47.404;8.566;2023-02-20T08:49:22;97558.44;;;12.52;92.67
39243;BME280;29823;47.404;8.566;2023-02-20T08:51:54;97534.38;;;11.77;95.19
39243;BME280;29823;47.404;8.566;2023-02-20T08:54:22;97546.66;;;11.98;95.57
39243;BME280;29823;47.404;8.566;2023-02-20T08:56:55;97536.22;;;11.83;94.32
39243;BME280;29823;47.404;8.566;2023-02-20T08:59:22;97531.66;;;12.21;91.22
39243;BME280;29823;47.404;8.566;2023-02-20T09:01:50;97537.53;;;12.36;88.95
39243;BME280;29823;47.404;8.566;2023-02-20T09:04:18;97533.28;;;12.53;83.48
39243;BME280;29823;47.404;8.566;2023-02-20T09:06:47;97532.47;;;12.95;83.85
39243;BME280;29823;47.404;8.566;2023-02-20T09:09:15;97532.78;;;12.63;80.87
39243;BME280;29823;47.404;8.566;2023-02-20T09:11:43;97543.78;;;12.79;80.05
39243;BME280;29823;47.404;8.566;2023-02-20T09:14:12;97538.53;;;12.66;80.25
39243;BME280;29823;47.404;8.566;2023-02-20T09:16:40;97542.63;;;12.44;83.59
39243;BME280;29823;47.404;8.566;2023-02-20T09:19:10;97545.19;;;12.57;85.20
39243;BME280;29823;47.404;8.566;2023-02-20T09:21:39;97542.41;;;12.95;80.82
39243;BME280;29823;47.404;8.566;2023-02-20T09:24:07;97521.44;;;13.28;80.06
39243;BME280;29823;47.404;8.566;2023-02-20T09:26:35;97534.50;;;13.42;81.35
39243;BME280;29823;47.404;8.566;2023-02-20T09:29:02;97533.06;;;13.58;75.62
39243;BME280;29823;47.404;8.566;2023-02-20T09:31:32;97527.97;;;13.68;77.11
39243;BME280;29823;47.404;8.566;2023-02-20T09:33:59;97519.06;;;13.85;72.91
39243;BME280;29823;47.404;8.566;2023-02-20T09:36:30;97523.28;;;13.63;72.08
39243;BME280;29823;47.404;8.566;2023-02-20T09:38:57;97521.44;;;13.64;75.74
39243;BME280;29823;47.404;8.566;2023-02-20T09:41:34;97512.09;;;13.48;76.09
39243;BME280;29823;47.404;8.566;2023-02-20T09:44:11;97514.03;;;13.59;77.32
39243;BME280;29823;47.404;8.566;2023-02-20T09:46:44;97513.59;;;13.26;77.94
39243;BME280;29823;47.404;8.566;2023-02-20T09:49:12;97510.53;;;13.05;78.78
39243;BME280;29823;47.404;8.566;2023-02-20T09:51:43;97518.97;;;13.26;79.14
39243;BME280;29823;47.404;8.566;2023-02-20T09:54:15;97508.44;;;13.07;77.87
39243;BME280;29823;47.404;8.566;2023-02-20T09:56:49;97503.53;;;13.22;77.92
39243;BME280;29823;47.404;8.566;2023-02-20T09:59:20;97493.19;;;12.83;80.75
39243;BME280;29823;47.404;8.566;2023-02-20T10:01:54;97497.03;;;13.11;77.33
39243;BME280;29823;47.404;8.566;2023-02-20T10:04:27;97492.63;;;12.74;78.04
39243;BME280;29823;47.404;8.566;2023-02-20T10:07:01;97497.19;;;13.16;76.68
39243;BME280;29823;47.404;8.566;2023-02-20T10:09:32;97500.69;;;13.35;74.59
39243;BME280;29823;47.404;8.566;2023-02-20T10:12:07;97512.34;;;12.86;76.34
39243;BME280;29823;47.404;8.566;2023-02-20T10:14:58;97508.38;;;13.13;75.79
39243;BME280;29823;47.404;8.566;2023-02-20T10:17:37;97507.50;;;13.85;71.29
39243;BME280;29823;47.404;8.566;2023-02-20T10:20:11;97511.50;;;13.94;72.01
39243;BME280;29823;47.404;8.566;2023-02-20T10:22:48;97513.59;;;13.62;71.28
39243;BME280;29823;47.404;8.566;2023-02-20T10:25:24;97515.03;;;13.76;72.38
39243;BME280;29823;47.404;8.566;2023-02-20T10:27:59;97514.94;;;13.35;70.64
39243;BME280;29823;47.404;8.566;2023-02-20T10:30:32;97509.19;;;13.14;74.22
39243;BME280;29823;47.404;8.566;2023-02-20T10:33:14;97517.94;;;13.09;74.54
39243;BME280;29823;47.404;8.566;2023-02-20T10:35:48;97506.50;;;13.97;71.02
39243;BME280;29823;47.404;8.566;2023-02-20T10:38:21;97507.38;;;14.09;70.27
39243;BME280;29823;47.404;8.566;2023-02-20T10:40:55;97497.09;;;14.59;68.44
39243;BME280;29823;47.404;8.566;2023-02-20T10:43:29;97499.03;;;14.40;68.35
39243;BME280;29823;47.404;8.566;2023-02-20T10:46:04;97502.19;;;14.26;69.62
39243;BME280;29823;47.404;8.566;2023-02-20T10:48:40;97495.97;;;13.96;72.67
39243;BME280;29823;47.404;8.566;2023-02-20T10:51:15;97490.59;;;14.25;70.92
39243;BME280;29823;47.404;8.566;2023-02-20T10:53:48;97487.81;;;15.24;67.94
39243;BME280;29823;47.404;8.566;2023-02-20T10:56:23;97491.19;;;15.54;66.08
39243;BME280;29823;47.404;8.566;2023-02-20T10:58:59;97485.28;;;15.06;65.67
39243;BME280;29823;47.404;8.566;2023-02-20T11:01:30;97470.19;;;15.95;65.10
39243;BME280;29823;47.404;8.566;2023-02-20T11:04:02;97473.22;;;16.76;60.42
39243;BME280;29823;47.404;8.566;2023-02-20T11:06:35;97481.72;;;16.07;63.45
39243;BME280;29823;47.404;8.566;2023-02-20T11:09:04;97465.53;;;17.39;58.94
39243;BME280;29823;47.404;8.566;2023-02-20T11:11:35;97463.75;;;18.19;57.82
39243;BME280;29823;47.404;8.566;2023-02-20T11:14:10;97459.53;;;18.96;53.15
39243;BME280;29823;47.404;8.566;2023-02-20T11:16:43;97461.47;;;19.47;51.05
39243;BME280;29823;47.404;8.566;2023-02-20T11:19:20;97459.66;;;18.80;54.13
39243;BME280;29823;47.404;8.566;2023-02-20T11:21:50;97451.97;;;20.21;50.21
39243;BME280;29823;47.404;8.566;2023-02-20T11:24:24;97449.25;;;20.26;49.31
39243;BME280;29823;47.404;8.566;2023-02-20T11:26:59;97435.59;;;19.86;49.55
39243;BME280;29823;47.404;8.566;2023-02-20T11:29:34;97423.13;;;19.29;50.15
39243;BME280;29823;47.404;8.566;2023-02-20T11:32:32;97432.81;;;19.71;49.53
39243;BME280;29823;47.404;8.566;2023-02-20T11:35:24;97422.47;;;18.70;52.60
39243;BME280;29823;47.404;8.566;2023-02-20T11:38:28;97411.84;;;18.01;54.72
39243;BME280;29823;47.404;8.566;2023-02-20T11:41:27;97396.91;;;17.45;56.15
39243;BME280;29823;47.404;8.566;2023-02-20T11:44:17;97401.84;;;17.53;56.72
39243;BME280;29823;47.404;8.566;2023-02-20T11:46:46;97383.22;;;18.36;53.78
39243;BME280;29823;47.404;8.566;2023-02-20T11:49:24;97383.56;;;16.58;56.14
39243;BME280;29823;47.404;8.566;2023-02-20T11:52:06;97390.41;;;16.82;56.08
39243;BME280;29823;47.404;8.566;2023-02-20T11:54:34;97384.97;;;17.41;56.08
39243;BME280;29823;47.404;8.566;2023-02-20T11:57:04;97372.81;;;17.65;55.30
39243;BME280;29823;47.404;8.566;2023-02-20T11:59:37;97362.13;;;18.38;53.60
39243;BME280;29823;47.404;8.566;2023-02-20T12:02:26;97367.03;;;17.83;54.03
39243;BME280;29823;47.404;8.566;2023-02-20T12:05:09;97352.25;;;18.27;53.57
39243;BME280;29823;47.404;8.566;2023-02-20T12:07:42;97353.09;;;17.70;54.09
39243;BME280;29823;47.404;8.566;2023-02-20T12:10:22;97349.06;;;18.72;52.66
39243;BME280;29823;47.404;8.566;2023-02-20T12:12:51;97338.69;;;19.05;51.52
39243;BME280;29823;47.404;8.566;2023-02-20T12:15:21;97336.41;;;18.09;53.08
39243;BME280;29823;47.404;8.566;2023-02-20T12:18:19;97332.22;;;19.11;51.44
39243;BME280;29823;47.404;8.566;2023-02-20T12:20:57;97323.72;;;18.93;50.45
39243;BME280;29823;47.404;8.566;2023-02-20T12:23:35;97311.25;;;19.78;48.95
39243;BME280;29823;47.404;8.566;2023-02-20T12:26:15;97311.78;;;20.00;46.73
39243;BME280;29823;47.404;8.566;2023-02-20T12:28:54;97313.38;;;19.56;47.90
39243;BME280;29823;47.404;8.566;2023-02-20T12:31:32;97300.38;;;19.83;47.12
39243;BME280;29823;47.404;8.566;2023-02-20T12:34:22;97303.66;;;19.95;46.70
39243;BME280;29823;47.404;8.566;2023-02-20T12:37:01;97303.50;;;21.10;44.79
39243;BME280;29823;47.404;8.566;2023-02-20T12:39:48;97298.22;;;21.82;43.19
39243;BME280;29823;47.404;8.566;2023-02-20T12:42:24;97291.47;;;21.26;43.90
39243;BME280;29823;47.404;8.566;2023-02-20T12:45:15;97281.91;;;22.68;41.77
39243;BME280;29823;47.404;8.566;2023-02-20T12:47:45;97280.91;;;22.64;41.20
39243;BME280;29823;47.404;8.566;2023-02-20T12:50:39;97274.63;;;22.87;42.08
39243;BME280;29823;47.404;8.566;2023-02-20T12:53:16;97258.16;;;22.73;40.24
39243;BME280;29823;47.404;8.566;2023-02-20T12:55:53;97264.72;;;22.72;39.51
39243;BME280;29823;47.404;8.566;2023-02-20T12:58:33;97254.72;;;21.72;42.11
39243;BME280;29823;47.404;8.566;2023-02-20T13:01:05;97252.47;;;22.93;39.64
39243;BME280;29823;47.404;8.566;2023-02-20T13:03:42;97257.00;;;23.63;38.66
39243;BME280;29823;47.404;8.566;2023-02-20T13:06:17;97246.13;;;21.50;42.30
39243;BME280;29823;47.404;8.566;2023-02-20T13:08:55;97243.94;;;21.09;43.95
39243;BME280;29823;47.404;8.566;2023-02-20T13:11:33;97224.81;;;20.60;44.29
39243;BME280;29823;47.404;8.566;2023-02-20T13:14:13;97252.16;;;18.89;49.63
39243;BME280;29823;47.404;8.566;2023-02-20T13:16:49;97236.19;;;17.99;51.23
39243;BME280;29823;47.404;8.566;2023-02-20T13:19:25;97233.13;;;17.01;53.44
39243;BME280;29823;47.404;8.566;2023-02-20T13:21:56;97225.97;;;16.26;53.09
39243;BME280;29823;47.404;8.566;2023-02-20T13:24:30;97222.78;;;15.74;54.13
39243;BME280;29823;47.404;8.566;2023-02-20T13:27:00;97220.72;;;15.48;55.27
39243;BME280;29823;47.404;8.566;2023-02-20T13:29:34;97225.47;;;15.41;56.56
39243;BME280;29823;47.404;8.566;2023-02-20T13:32:20;97200.66;;;15.39;56.85